Time;durP1;ratioP1;P1;durP2;ratioP2;P2;SDS_P1;SDS_P2;PMS_P1;PMS_P2;Temp;Humidity;BMP_temperature;BMP_pressure;BME280_temperature;BME280_humidity;BME280_pressure;Samples;Min_cycle;Max_cycle;Signal;HPM_P1;HPM_P2
2021/10/12 00:01:07;;;;;;;9.57;1.90;;;;;;;9.86;86.77;102666.72;5092163;28;20039;-75
2021/10/12 00:03:33;;;;;;;8.65;1.50;;;;;;;9.81;86.73;102674.13;5093114;28;20097;-74
2021/10/12 00:05:59;;;;;;;12.18;2.17;;;;;;;9.77;88.01;102681.41;5091701;28;20034;-74
2021/10/12 00:08:24;;;;;;;10.27;2.10;;;;;;;9.70;88.68;102672.94;5074854;28;20062;-74
2021/10/12 00:10:50;;;;;;;8.55;1.55;;;;;;;9.68;88.78;102680.13;5092097;28;20357;-74
2021/10/12 00:13:15;;;;;;;8.43;1.60;;;;;;;9.63;90.21;102676.88;5092671;28;20118;-73
2021/10/12 00:15:41;;;;;;;11.18;1.73;;;;;;;9.62;91.83;102674.31;5092639;28;20031;-73
2021/10/12 00:18:06;;;;;;;19.58;1.80;;;;;;;9.55;92.69;102670.28;5091752;28;20064;-75
2021/10/12 00:20:32;;;;;;;13.43;1.88;;;;;;;9.48;94.13;102668.00;5092747;28;20032;-74
2021/10/12 00:22:58;;;;;;;12.27;1.75;;;;;;;9.41;94.30;102674.59;5092169;28;20078;-75
2021/10/12 00:25:23;;;;;;;10.68;1.88;;;;;;;9.37;95.30;102669.53;5092617;28;20101;-76
2021/10/12 00:27:49;;;;;;;12.07;1.90;;;;;;;9.33;95.87;102669.72;5073730;28;20102;-75
2021/10/12 00:30:15;;;;;;;8.20;1.50;;;;;;;9.31;96.66;102668.06;5092466;28;20122;-75
2021/10/12 00:32:41;;;;;;;13.57;1.88;;;;;;;9.28;97.07;102663.78;5092199;28;20104;-75
2021/10/12 00:35:07;;;;;;;8.45;1.80;;;;;;;9.25;97.22;102663.09;5091564;28;20036;-75
2021/10/12 00:37:32;;;;;;;11.30;2.58;;;;;;;9.23;97.63;102665.00;5092148;28;20036;-75
2021/10/12 00:39:58;;;;;;;12.18;2.05;;;;;;;9.22;98.05;102658.81;5091875;28;20038;-74
2021/10/12 00:42:24;;;;;;;16.30;2.00;;;;;;;9.20;98.08;102668.69;5092377;28;20032;-75
2021/10/12 00:44:50;;;;;;;17.13;2.15;;;;;;;9.17;98.40;102656.41;5092130;28;20024;-75
2021/10/12 00:47:15;;;;;;;11.30;2.30;;;;;;;9.15;98.62;102654.78;5074189;28;20028;-75
2021/10/12 00:49:41;;;;;;;19.05;2.45;;;;;;;9.13;98.99;102657.53;5092302;28;20039;-75
2021/10/12 00:52:07;;;;;;;10.23;1.65;;;;;;;9.11;98.97;102653.25;5091775;28;20047;-75
2021/10/12 00:54:32;;;;;;;11.15;1.95;;;;;;;9.09;99.29;102650.69;5092295;28;20039;-75
2021/10/12 00:56:58;;;;;;;13.02;2.25;;;;;;;9.10;99.71;102641.75;5091565;28;20082;-75
2021/10/12 00:59:23;;;;;;;13.88;2.20;;;;;;;9.10;99.88;102633.78;5074183;28;20050;-75
2021/10/12 01:01:49;;;;;;;17.77;2.50;;;;;;;9.10;100.00;102625.00;5092332;28;20024;-75
2021/10/12 01:04:14;;;;;;;14.50;2.13;;;;;;;9.09;100.00;102618.84;5091608;28;20028;-75
2021/10/12 01:06:40;;;;;;;12.77;2.35;;;;;;;9.09;100.00;102613.53;5092328;28;20032;-75
2021/10/12 01:09:06;;;;;;;14.50;2.38;;;;;;;9.08;100.00;102611.78;5091550;28;20036;-75
2021/10/12 01:11:35;;;;;;;19.05;3.05;;;;;;;9.06;100.00;102613.69;5091823;28;20062;-75
2021/10/12 01:14:02;;;;;;;10.95;2.55;;;;;;;9.06;100.00;102612.81;5091545;28;20531;-76
2021/10/12 01:16:27;;;;;;;14.68;2.17;;;;;;;9.06;100.00;102602.19;5091962;28;20063;-75
2021/10/12 01:19:04;;;;;;;8.57;2.00;;;;;;;9.05;100.00;102598.69;5091796;28;20040;-76
2021/10/12 01:21:40;;;;;;;12.45;2.20;;;;;;;9.06;100.00;102603.06;5092152;28;20032;-76
2021/10/12 01:24:06;;;;;;;15.38;2.65;;;;;;;9.04;100.00;102602.28;5091103;28;20036;-77
2021/10/12 01:26:33;;;;;;;19.88;2.75;;;;;;;9.03;100.00;102592.59;5092233;28;20055;-77
2021/10/12 01:28:59;;;;;;;15.70;2.63;;;;;;;9.04;100.00;102601.44;5091489;28;20047;-77
2021/10/12 01:31:27;;;;;;;16.05;2.47;;;;;;;9.03;100.00;102591.75;5095549;28;20028;-76
2021/10/12 01:33:54;;;;;;;14.30;2.70;;;;;;;9.06;100.00;102602.19;5077426;28;20375;-76
2021/10/12 01:36:20;;;;;;;18.50;3.30;;;;;;;9.09;100.00;102588.75;5094694;28;20036;-76
2021/10/12 01:38:46;;;;;;;18.85;3.13;;;;;;;9.10;100.00;102571.88;5095164;28;20051;-75
2021/10/12 01:41:12;;;;;;;16.80;3.42;;;;;;;9.10;100.00;102567.41;5076706;28;20442;-74
2021/10/12 01:43:38;;;;;;;15.55;2.88;;;;;;;9.11;100.00;102561.16;5095553;28;20110;-74
2021/10/12 01:46:05;;;;;;;16.00;3.25;;;;;;;9.11;100.00;102552.34;5094809;28;20032;-75
2021/10/12 01:48:32;;;;;;;10.02;2.58;;;;;;;9.11;100.00;102541.72;5077080;28;20032;-75
2021/10/12 01:50:58;;;;;;;9.50;2.60;;;;;;;9.11;100.00;102547.88;5095253;28;20034;-75
2021/10/12 01:53:24;;;;;;;17.63;3.08;;;;;;;9.11;100.00;102531.13;5077200;28;20118;-75
2021/10/12 01:55:49;;;;;;;12.25;2.92;;;;;;;9.11;100.00;102531.97;5077062;28;20465;-75
2021/10/12 01:58:15;;;;;;;11.70;3.03;;;;;;;9.09;100.00;102531.19;5094496;28;20480;-75
2021/10/12 02:00:41;;;;;;;11.52;2.63;;;;;;;9.09;100.00;102527.66;5095055;28;20046;-75
2021/10/12 02:03:06;;;;;;;12.77;3.15;;;;;;;9.10;100.00;102521.44;5094502;28;20165;-76
2021/10/12 02:05:32;;;;;;;18.45;3.00;;;;;;;9.08;100.00;102518.84;5095208;28;20043;-76
2021/10/12 02:07:57;;;;;;;14.35;3.00;;;;;;;9.08;100.00;102518.84;5095026;28;20418;-76
2021/10/12 02:10:23;;;;;;;8.48;2.30;;;;;;;9.08;100.00;102504.75;5094473;28;20115;-76
2021/10/12 02:12:48;;;;;;;16.90;2.70;;;;;;;9.08;100.00;102505.59;5094900;28;20036;-75
2021/10/12 02:15:14;;;;;;;11.70;3.00;;;;;;;9.07;100.00;102498.56;5094056;28;20050;-76
2021/10/12 02:17:40;;;;;;;15.15;3.22;;;;;;;9.08;100.00;102496.78;5094537;28;20046;-76
2021/10/12 02:20:07;;;;;;;14.05;2.85;;;;;;;9.10;100.00;102501.03;5094383;28;20384;-76
2021/10/12 02:22:33;;;;;;;15.18;2.97;;;;;;;9.13;100.00;102516.78;5094342;28;20036;-75
2021/10/12 02:24:59;;;;;;;21.65;3.33;;;;;;;9.16;100.00;102508.63;5094413;28;20058;-74
2021/10/12 02:27:25;;;;;;;24.33;4.45;;;;;;;9.23;100.00;102519.78;5093983;28;20110;-74
2021/10/12 02:29:51;;;;;;;22.67;4.00;;;;;;;9.28;100.00;102520.34;5094664;28;20442;-75
2021/10/12 02:32:17;;;;;;;16.02;3.33;;;;;;;9.29;100.00;102507.94;5093888;28;20032;-74
2021/10/12 02:34:43;;;;;;;16.95;3.70;;;;;;;9.30;100.00;102499.88;5094192;28;20102;-74
2021/10/12 02:37:08;;;;;;;9.70;3.25;;;;;;;9.31;100.00;102495.41;5093788;28;20055;-75
2021/10/12 02:39:34;;;;;;;12.98;3.20;;;;;;;9.31;100.00;102488.28;5094366;28;20043;-74
2021/10/12 02:41:59;;;;;;;14.45;3.40;;;;;;;9.31;100.00;102487.44;5094065;28;20032;-74
2021/10/12 02:44:25;;;;;;;12.90;3.42;;;;;;;9.31;100.00;102484.78;5093641;28;20032;-74
2021/10/12 02:46:50;;;;;;;19.33;3.72;;;;;;;9.32;100.00;102481.19;5075969;28;20028;-74
2021/10/12 02:49:16;;;;;;;15.52;3.88;;;;;;;9.33;100.00;102466.94;5093152;28;20107;-75
2021/10/12 02:51:41;;;;;;;21.67;4.40;;;;;;;9.35;100.00;102463.25;5093953;28;20434;-74
2021/10/12 02:54:06;;;;;;;13.63;3.50;;;;;;;9.41;100.00;102458.53;5093292;28;20380;-77
2021/10/12 02:56:32;;;;;;;17.95;3.90;;;;;;;9.44;100.00;102453.03;5093848;28;20119;-74
2021/10/12 02:58:57;;;;;;;17.45;3.72;;;;;;;9.45;100.00;102449.41;5093909;28;20036;-74
2021/10/12 03:01:22;;;;;;;19.75;3.60;;;;;;;9.46;100.00;102440.50;5093333;28;20468;-75
2021/10/12 03:03:48;;;;;;;18.85;3.50;;;;;;;9.47;100.00;102440.41;5093977;28;20028;-75
2021/10/12 03:06:13;;;;;;;26.23;4.07;;;;;;;9.48;100.00;102436.81;5092925;28;20032;-76
2021/10/12 03:08:39;;;;;;;17.90;3.33;;;;;;;9.50;100.00;102418.13;5093724;28;20032;-75
2021/10/12 03:11:04;;;;;;;19.52;3.97;;;;;;;9.48;100.00;102417.34;5093823;28;20484;-75
2021/10/12 03:13:29;;;;;;;16.70;4.07;;;;;;;9.48;100.00;102415.56;5093032;28;20499;-75
2021/10/12 03:15:55;;;;;;;13.43;3.63;;;;;;;9.49;100.00;102409.31;5093692;28;20056;-75
2021/10/12 03:18:20;;;;;;;16.20;4.00;;;;;;;9.50;100.00;102405.69;5092922;28;20032;-75
2021/10/12 03:20:45;;;;;;;20.23;4.25;;;;;;;9.50;100.00;102413.66;5093644;28;20089;-75
2021/10/12 03:23:11;;;;;;;16.35;3.78;;;;;;;9.52;100.00;102414.44;5092746;28;20111;-76
2021/10/12 03:25:36;;;;;;;12.60;3.30;;;;;;;9.53;100.00;102412.63;5093340;28;20052;-75
2021/10/12 03:28:04;;;;;;;12.73;4.05;;;;;;;9.56;100.00;102416.91;5093355;28;20422;-75
2021/10/12 03:30:30;;;;;;;25.95;4.30;;;;;;;9.58;100.00;102409.69;5092773;28;20064;-75
2021/10/12 03:32:55;;;;;;;20.98;4.00;;;;;;;9.60;100.00;102406.00;5093496;28;20074;-75
2021/10/12 03:35:29;;;;;;;16.52;4.18;;;;;;;9.62;100.00;102400.59;5092660;28;20028;-75
2021/10/12 03:37:55;;;;;;;19.63;3.95;;;;;;;9.64;100.00;102406.66;5093271;28;20464;-75
2021/10/12 03:40:21;;;;;;;25.30;4.80;;;;;;;9.67;100.00;102399.34;5092575;28;20478;-74
2021/10/12 03:42:46;;;;;;;21.05;4.57;;;;;;;9.69;100.00;102392.13;5093196;28;20071;-75
2021/10/12 03:45:12;;;;;;;21.90;4.65;;;;;;;9.71;100.00;102392.88;5093196;28;20077;-74
2021/10/12 03:47:37;;;;;;;30.50;4.70;;;;;;;9.74;100.00;102383.03;5074448;28;20032;-74
2021/10/12 03:50:03;;;;;;;27.83;4.50;;;;;;;9.75;100.00;102382.91;5092692;28;20029;-74
2021/10/12 03:52:28;;;;;;;21.80;5.13;;;;;;;9.77;100.00;102385.47;5091329;28;20051;-74
2021/10/12 03:54:54;;;;;;;26.23;5.38;;;;;;;9.78;100.00;102380.06;5092990;28;20036;-74
2021/10/12 03:57:19;;;;;;;22.35;5.35;;;;;;;9.80;100.00;102374.66;5092266;28;20031;-75
2021/10/12 03:59:44;;;;;;;38.00;6.05;;;;;;;9.81;100.00;102360.41;5092887;28;20032;-75
2021/10/12 04:02:10;;;;;;;27.83;5.35;;;;;;;9.83;100.00;102362.00;5092735;28;20070;-74
2021/10/12 04:04:35;;;;;;;29.00;6.00;;;;;;;9.86;100.00;102359.16;5092168;28;20040;-74
2021/10/12 04:07:00;;;;;;;28.48;6.05;;;;;;;9.91;100.00;102356.19;5092439;28;20028;-73
2021/10/12 04:09:26;;;;;;;26.00;5.03;;;;;;;9.92;100.00;102351.75;5092049;28;20383;-75
2021/10/12 04:11:51;;;;;;;31.38;5.18;;;;;;;9.92;100.00;102349.09;5092370;28;20032;-74
2021/10/12 04:14:16;;;;;;;34.58;5.88;;;;;;;9.94;100.00;102347.19;5074145;28;20036;-76
2021/10/12 04:16:42;;;;;;;23.65;4.53;;;;;;;9.92;100.00;102349.09;5092689;28;20059;-74
2021/10/12 04:19:07;;;;;;;32.20;5.05;;;;;;;9.91;100.00;102340.25;5092625;28;20043;-74
2021/10/12 04:21:33;;;;;;;23.23;4.35;;;;;;;9.89;100.00;102347.47;5091801;28;20032;-74
2021/10/12 04:23:58;;;;;;;35.05;4.38;;;;;;;9.87;100.00;102344.06;5092672;28;20028;-74
2021/10/12 04:26:25;;;;;;;20.33;3.15;;;;;;;9.84;100.00;102345.13;5091407;28;20385;-74
2021/10/12 04:28:51;;;;;;;16.58;3.28;;;;;;;9.80;100.00;102340.94;5092451;28;20032;-74
2021/10/12 04:31:16;;;;;;;21.90;3.25;;;;;;;9.77;100.00;102337.63;5092454;28;20034;-74
2021/10/12 04:33:41;;;;;;;22.67;3.17;;;;;;;9.74;100.00;102336.00;5073722;28;20066;-74
2021/10/12 04:36:07;;;;;;;24.48;3.17;;;;;;;9.73;100.00;102334.31;5092438;28;20028;-74
2021/10/12 04:38:32;;;;;;;28.83;4.95;;;;;;;9.73;100.00;102325.47;5091712;28;20128;-75
2021/10/12 04:40:58;;;;;;;20.25;2.85;;;;;;;9.73;100.00;102323.66;5092373;28;20115;-74
2021/10/12 04:43:23;;;;;;;24.30;3.10;;;;;;;9.75;100.00;102326.22;5091741;28;20056;-75
2021/10/12 04:45:49;;;;;;;23.85;3.42;;;;;;;9.76;100.00;102334.09;5092465;28;20040;-75
2021/10/12 04:48:15;;;;;;;27.95;4.90;;;;;;;9.78;100.00;102321.59;5092261;28;20028;-75
2021/10/12 04:50:41;;;;;;;22.92;3.70;;;;;;;9.80;100.00;102321.50;5091742;28;20384;-75
2021/10/12 04:53:06;;;;;;;20.88;3.60;;;;;;;9.82;100.00;102322.22;5092009;28;20040;-74
2021/10/12 04:55:32;;;;;;;24.08;3.28;;;;;;;9.84;100.00;102315.88;5073542;28;20040;-75
2021/10/12 04:57:58;;;;;;;31.38;4.25;;;;;;;9.87;100.00;102322.81;5092252;28;20119;-75
2021/10/12 05:00:23;;;;;;;23.92;4.32;;;;;;;9.89;100.00;102323.56;5091394;28;20035;-77
2021/10/12 05:02:49;;;;;;;27.85;4.30;;;;;;;9.92;100.00;102312.72;5092316;28;20028;-76
2021/10/12 05:05:14;;;;;;;21.55;3.25;;;;;;;9.99;100.00;102313.19;5096225;28;20032;-75
2021/10/12 05:07:40;;;;;;;30.88;4.53;;;;;;;10.01;100.00;102306.81;5077289;28;20032;-76
2021/10/12 05:10:06;;;;;;;25.25;3.65;;;;;;;10.03;100.00;102312.03;5095709;28;20122;-75
2021/10/12 05:12:31;;;;;;;25.70;3.30;;;;;;;10.02;100.00;102308.53;5095350;28;20032;-76
2021/10/12 05:14:57;;;;;;;26.80;4.18;;;;;;;10.02;100.00;102310.34;5096185;28;20107;-76
2021/10/12 05:17:25;;;;;;;18.58;3.17;;;;;;;9.99;100.00;102300.75;5095927;28;20424;-76
2021/10/12 05:19:50;;;;;;;22.20;2.92;;;;;;;10.00;100.00;102309.56;5095814;28;20035;-76
2021/10/12 05:22:15;;;;;;;22.77;3.03;;;;;;;9.98;100.00;102293.72;5096104;28;20028;-75
2021/10/12 05:24:41;;;;;;;31.73;3.05;;;;;;;9.99;100.00;102299.91;5094698;28;20197;-76
2021/10/12 05:27:07;;;;;;;23.13;3.80;;;;;;;9.97;100.00;102294.69;5095451;28;20395;-76
2021/10/12 05:29:32;;;;;;;20.55;3.00;;;;;;;9.95;100.00;102293.91;5094957;28;20031;-76
2021/10/12 05:31:58;;;;;;;24.40;3.42;;;;;;;9.93;100.00;102293.16;5095779;28;20539;-76
2021/10/12 05:34:23;;;;;;;24.83;3.50;;;;;;;9.93;100.00;102284.31;5095593;28;20032;-76
2021/10/12 05:36:49;;;;;;;23.65;3.53;;;;;;;9.92;100.00;102286.13;5095174;28;20399;-77
2021/10/12 05:39:14;;;;;;;22.65;3.67;;;;;;;9.96;100.00;102290.31;5095440;28;20031;-76
2021/10/12 05:41:39;;;;;;;28.45;3.70;;;;;;;9.98;100.00;102283.06;5094795;28;20081;-74
2021/10/12 05:44:05;;;;;;;27.42;5.05;;;;;;;10.01;100.00;102284.69;5095275;28;20056;-75
2021/10/12 05:46:30;;;;;;;22.63;3.97;;;;;;;10.03;100.00;102275.66;5094173;28;20032;-75
2021/10/12 05:48:57;;;;;;;30.73;3.42;;;;;;;10.06;100.00;102274.59;5077172;28;20043;-75
2021/10/12 05:51:24;;;;;;;24.42;3.22;;;;;;;10.10;100.00;102275.25;5095239;28;20036;-75
2021/10/12 05:53:51;;;;;;;30.05;4.10;;;;;;;10.13;99.95;102265.25;5094374;28;20039;-74
2021/10/12 05:56:28;;;;;;;16.55;3.30;;;;;;;10.16;99.34;102262.41;5095042;28;20111;-74
2021/10/12 05:58:54;;;;;;;17.48;3.10;;;;;;;10.19;99.35;102267.50;5094883;28;20028;-74
2021/10/12 06:01:22;;;;;;;25.35;3.33;;;;;;;10.21;99.71;102268.28;5094733;28;20058;-74
2021/10/12 06:03:48;;;;;;;19.98;3.35;;;;;;;10.21;100.00;102256.75;5094302;28;20086;-75
2021/10/12 06:06:14;;;;;;;30.00;4.32;;;;;;;10.21;99.88;102251.44;5094986;28;20460;-75
2021/10/12 06:08:41;;;;;;;24.05;3.70;;;;;;;10.21;99.65;102254.97;5094297;28;20028;-75
2021/10/12 06:11:08;;;;;;;23.15;3.38;;;;;;;10.22;100.00;102258.47;5094779;28;20043;-72
2021/10/12 06:13:35;;;;;;;20.23;4.03;;;;;;;10.24;100.00;102260.09;5094487;28;20070;-74
2021/10/12 06:16:01;;;;;;;24.10;3.05;;;;;;;10.26;100.00;102260.00;5071484;28;20376;-76
2021/10/12 06:18:27;;;;;;;21.90;3.17;;;;;;;10.30;100.00;102265.94;5091727;28;20106;-77
2021/10/12 06:20:53;;;;;;;18.63;2.88;;;;;;;10.29;100.00;102265.09;5091500;28;20119;-75
2021/10/12 06:23:19;;;;;;;20.48;3.25;;;;;;;10.34;100.00;102256.84;5091731;28;20162;-75
2021/10/12 06:25:46;;;;;;;16.15;2.50;;;;;;;10.34;100.00;102256.84;5091080;28;20139;-77
2021/10/12 06:28:14;;;;;;;18.73;2.90;;;;;;;10.35;99.48;102258.56;5091348;28;20063;-74
2021/10/12 06:30:40;;;;;;;26.13;3.17;;;;;;;10.38;99.66;102258.34;5091324;28;20040;-77
2021/10/12 06:33:05;;;;;;;16.27;2.60;;;;;;;10.39;99.53;102257.41;5091620;28;20047;-76
2021/10/12 06:35:31;;;;;;;14.77;2.92;;;;;;;10.40;99.08;102249.31;5091293;28;20064;-74
2021/10/12 06:38:01;;;;;;;12.40;2.38;;;;;;;10.44;98.83;102262.41;5090784;28;20039;-77
2021/10/12 06:40:27;;;;;;;20.13;2.80;;;;;;;10.45;99.19;102253.44;5091383;28;20132;-77
2021/10/12 06:42:53;;;;;;;11.43;2.10;;;;;;;10.49;99.03;102250.47;5090847;28;20136;-75
2021/10/12 06:45:20;;;;;;;15.23;2.70;;;;;;;10.54;98.39;102247.53;5091656;28;20145;-77
2021/10/12 06:47:47;;;;;;;19.60;2.78;;;;;;;10.62;98.12;102253.16;5090721;28;20036;-76
2021/10/12 06:50:13;;;;;;;23.05;3.22;;;;;;;10.68;98.09;102259.88;5073280;28;20032;-76
2021/10/12 06:52:39;;;;;;;18.15;2.65;;;;;;;10.71;98.11;102265.00;5090266;28;20384;-77
2021/10/12 06:55:07;;;;;;;15.32;2.33;;;;;;;10.73;97.17;102265.72;5091349;28;20035;-80
2021/10/12 06:57:33;;;;;;;27.17;3.40;;;;;;;10.69;98.67;102267.78;5091129;28;20126;-81
2021/10/12 06:59:58;;;;;;;11.38;2.72;;;;;;;10.56;99.17;102257.09;5090255;28;20067;-81
2021/10/12 07:02:24;;;;;;;11.65;2.92;;;;;;;10.47;100.00;102260.38;5090760;28;20039;-80
2021/10/12 07:04:49;;;;;;;17.35;3.03;;;;;;;10.45;100.00;102259.66;5090495;28;20619;-80
2021/10/12 07:07:14;;;;;;;22.35;3.30;;;;;;;10.45;100.00;102254.31;5091291;28;20379;-80
2021/10/12 07:09:40;;;;;;;17.45;4.05;;;;;;;10.44;100.00;102257.94;5090124;28;20044;-80
2021/10/12 07:12:05;;;;;;;20.25;3.08;;;;;;;10.44;100.00;102249.94;5072863;28;20958;-79
2021/10/12 07:14:31;;;;;;;19.92;3.03;;;;;;;10.44;100.00;102249.94;5090479;28;20452;-76
2021/10/12 07:16:56;;;;;;;17.00;3.47;;;;;;;10.44;100.00;102251.78;5090173;28;20054;-77
2021/10/12 07:19:22;;;;;;;19.65;3.33;;;;;;;10.44;100.00;102252.59;5090653;28;20169;-75
2021/10/12 07:21:47;;;;;;;18.92;3.00;;;;;;;10.45;100.00;102250.78;5090151;28;20478;-76
2021/10/12 07:24:13;;;;;;;20.90;2.88;;;;;;;10.46;100.00;102248.03;5087246;28;20046;-77
2021/10/12 07:26:39;;;;;;;13.07;3.00;;;;;;;10.48;100.00;102238.16;5091787;28;20453;-76
2021/10/12 07:29:05;;;;;;;11.63;2.83;;;;;;;10.50;100.00;102238.88;5092397;28;20115;-76
2021/10/12 07:31:31;;;;;;;20.38;3.22;;;;;;;10.50;100.00;102238.88;5092931;28;20154;-76
2021/10/12 07:33:57;;;;;;;13.85;2.45;;;;;;;10.51;100.00;102235.28;5092473;28;20062;-76
2021/10/12 07:36:22;;;;;;;27.65;3.63;;;;;;;10.59;100.00;102243.56;5093338;28;20116;-76
2021/10/12 07:38:47;;;;;;;28.10;3.70;;;;;;;10.75;100.00;102238.06;5092514;28;20036;-76
2021/10/12 07:41:13;;;;;;;19.38;3.30;;;;;;;10.92;100.00;102233.38;5093104;28;20032;-76
2021/10/12 07:43:38;;;;;;;16.58;3.40;;;;;;;10.96;100.00;102234.88;5093157;28;20032;-75
2021/10/12 07:46:04;;;;;;;17.45;2.78;;;;;;;10.94;100.00;102232.31;5092480;28;20032;-77
2021/10/12 07:48:30;;;;;;;16.60;2.53;;;;;;;10.90;100.00;102230.81;5093140;28;20059;-76
2021/10/12 07:50:55;;;;;;;16.77;2.30;;;;;;;10.97;99.37;102231.22;5092678;28;20065;-77
2021/10/12 07:53:21;;;;;;;27.38;3.85;;;;;;;11.03;99.42;102225.50;5092713;28;20468;-78
2021/10/12 07:55:50;;;;;;;12.13;2.28;;;;;;;11.10;99.06;102231.22;5092469;28;20462;-79
2021/10/12 07:58:15;;;;;;;17.75;2.80;;;;;;;11.20;98.18;102229.59;5092828;28;20032;-77
2021/10/12 08:00:43;;;;;;;17.55;2.60;;;;;;;11.31;96.90;102222.66;5093161;28;20085;-77
2021/10/12 08:03:10;;;;;;;18.08;2.40;;;;;;;11.37;96.81;102224.88;5092980;28;20115;-77
2021/10/12 08:05:36;;;;;;;16.55;2.55;;;;;;;11.42;96.10;102223.59;5092738;28;20032;-78
2021/10/12 08:08:02;;;;;;;12.88;2.60;;;;;;;11.49;96.37;102221.31;5074252;28;20530;-77
2021/10/12 08:10:27;;;;;;;13.85;2.08;;;;;;;11.59;96.86;102222.38;5092641;28;20033;-80
2021/10/12 08:12:57;;;;;;;11.60;2.15;;;;;;;11.73;96.36;102224.00;5074061;28;20032;-76
2021/10/12 08:15:23;;;;;;;12.27;2.10;;;;;;;11.87;96.05;102220.34;5092685;28;20028;-75
2021/10/12 08:17:48;;;;;;;14.23;2.85;;;;;;;12.05;94.11;102214.63;5092010;28;20085;-77
2021/10/12 08:20:14;;;;;;;17.77;2.50;;;;;;;12.33;94.27;102211.56;5092536;28;20098;-75
2021/10/12 08:22:40;;;;;;;23.75;2.97;;;;;;;12.59;92.16;102218.56;5092843;28;20048;-76
2021/10/12 08:25:08;;;;;;;17.38;2.08;;;;;;;12.60;90.78;102214.88;5091607;28;20048;-76
2021/10/12 08:27:34;;;;;;;16.92;2.30;;;;;;;12.48;88.88;102209.56;5092518;28;20051;-76
2021/10/12 08:29:59;;;;;;;17.08;2.95;;;;;;;12.32;89.35;102207.19;5073797;28;20081;-76
2021/10/12 08:32:25;;;;;;;14.18;2.35;;;;;;;12.22;90.77;102208.03;5092293;28;20410;-75
2021/10/12 08:34:50;;;;;;;18.58;2.78;;;;;;;12.13;91.27;102207.72;5091820;28;20565;-76
2021/10/12 08:37:16;;;;;;;17.77;2.38;;;;;;;12.05;91.83;102206.63;5092338;28;20455;-75
2021/10/12 08:39:43;;;;;;;9.50;2.05;;;;;;;12.07;91.09;102204.69;5095756;28;20039;-75
2021/10/12 08:42:25;;;;;;;13.65;2.42;;;;;;;12.63;89.59;102203.97;5095891;28;20028;-75
2021/10/12 08:44:59;;;;;;;9.32;2.20;;;;;;;13.71;85.11;102206.13;5096048;28;20032;-75
2021/10/12 08:47:27;;;;;;;13.93;2.22;;;;;;;13.65;82.25;102210.13;5096640;28;20027;-74
2021/10/12 08:49:54;;;;;;;12.55;2.50;;;;;;;13.27;83.02;102216.75;5095862;28;20089;-75
2021/10/12 08:52:20;;;;;;;9.88;2.33;;;;;;;12.94;85.97;102215.78;5077954;28;20441;-74
2021/10/12 08:54:50;;;;;;;17.40;2.45;;;;;;;12.77;87.36;102211.75;5096324;28;20543;-74
2021/10/12 08:57:29;;;;;;;21.35;2.30;;;;;;;13.16;87.24;102208.75;5096109;28;20068;-74
2021/10/12 08:59:56;;;;;;;13.13;2.63;;;;;;;13.90;84.28;102206.28;5095724;28;20498;-76
2021/10/12 09:02:28;;;;;;;15.38;2.25;;;;;;;14.39;79.30;102206.66;5096236;28;20028;-73
2021/10/12 09:04:53;;;;;;;13.15;2.10;;;;;;;14.56;79.83;102201.69;5095672;28;20077;-77
2021/10/12 09:07:27;;;;;;;12.25;2.00;;;;;;;14.81;78.46;102190.56;5096304;28;20020;-75
2021/10/12 09:09:55;;;;;;;13.00;2.65;;;;;;;15.25;77.88;102179.56;5095490;28;20028;-75
2021/10/12 09:12:45;;;;;;;16.00;2.75;;;;;;;16.86;71.45;102181.75;5096113;28;20032;-74
2021/10/12 09:15:11;;;;;;;12.60;2.30;;;;;;;16.95;69.73;102181.91;5095640;28;20067;-80
2021/10/12 09:17:39;;;;;;;11.85;2.30;;;;;;;15.68;73.91;102183.75;5096312;28;20063;-76
2021/10/12 09:20:26;;;;;;;18.30;2.28;;;;;;;14.53;77.76;102180.53;5095148;28;20028;-79
2021/10/12 09:23:12;;;;;;;14.05;2.20;;;;;;;14.92;77.50;102186.94;5095602;28;20418;-79
2021/10/12 09:25:44;;;;;;;18.83;2.40;;;;;;;16.31;74.00;102178.94;5095649;28;20051;-79
2021/10/12 09:28:26;;;;;;;16.42;2.50;;;;;;;16.95;69.39;102174.66;5095028;28;20464;-78
2021/10/12 09:30:55;;;;;;;10.98;2.80;;;;;;;16.20;71.28;102174.59;5095746;28;20055;-82
2021/10/12 09:33:21;;;;;;;12.88;2.70;;;;;;;15.26;75.83;102183.13;5095649;28;20028;-80
2021/10/12 09:35:47;;;;;;;16.77;2.60;;;;;;;14.21;79.67;102168.06;5095725;28;20032;-78
2021/10/12 09:38:13;;;;;;;15.57;2.40;;;;;;;13.58;82.21;102164.34;5094982;28;20110;-78
2021/10/12 09:40:44;;;;;;;18.52;3.08;;;;;;;13.13;85.09;102167.06;5095547;28;20028;-79
2021/10/12 09:43:10;;;;;;;20.77;3.75;;;;;;;12.93;85.63;102167.81;5095113;28;20487;-79
2021/10/12 09:45:40;;;;;;;12.38;2.47;;;;;;;12.96;86.56;102167.59;5095457;28;20111;-79
2021/10/12 09:48:34;;;;;;;18.38;2.83;;;;;;;13.09;86.03;102170.13;5094808;28;20063;-81
2021/10/12 09:51:16;;;;;;;16.10;2.15;;;;;;;13.25;85.82;102157.22;5093438;28;20025;-79
2021/10/12 09:53:44;;;;;;;13.00;2.63;;;;;;;13.33;85.68;102162.81;5095221;28;20032;-79
2021/10/12 09:56:10;;;;;;;15.15;2.50;;;;;;;13.26;85.34;102163.44;5094668;28;20024;-79
2021/10/12 09:58:36;;;;;;;19.50;2.70;;;;;;;13.11;86.61;102165.50;5095153;28;20105;-78
2021/10/12 10:01:08;;;;;;;15.35;2.58;;;;;;;12.66;88.12;102179.72;5094564;28;20034;-81
2021/10/12 10:03:34;;;;;;;15.98;2.25;;;;;;;12.10;90.08;102183.13;5095122;28;20365;-78
2021/10/12 10:06:07;;;;;;;12.80;2.22;;;;;;;11.77;93.06;102185.50;5094317;28;20047;-81
2021/10/12 10:08:37;;;;;;;30.20;2.95;;;;;;;11.61;95.90;102187.59;5094767;28;20472;-79
2021/10/12 10:11:04;;;;;;;37.60;4.55;;;;;;;11.67;97.71;102172.97;5094437;28;20472;-80
2021/10/12 10:13:33;;;;;;;36.22;4.28;;;;;;;11.86;98.82;102169.78;5094694;28;20051;-79
2021/10/12 10:15:58;;;;;;;27.52;3.90;;;;;;;12.17;98.64;102176.34;5094788;28;20036;-82
2021/10/12 10:18:25;;;;;;;21.20;2.40;;;;;;;12.70;95.91;102171.34;5093990;28;20518;-80
2021/10/12 10:20:53;;;;;;;21.95;3.00;;;;;;;12.92;93.61;102179.50;5094730;28;20121;-80
2021/10/12 10:23:48;;;;;;;22.05;2.63;;;;;;;12.70;93.90;102168.69;5094031;28;20036;-80
2021/10/12 10:26:32;;;;;;;22.85;2.38;;;;;;;12.53;94.31;102169.16;5091474;28;20040;-81
2021/10/12 10:29:25;;;;;;;13.65;1.73;;;;;;;12.46;94.47;102165.25;5076500;28;20051;-82
2021/10/12 10:32:00;;;;;;;14.45;2.13;;;;;;;12.68;94.21;102167.09;5076434;28;20036;-81
2021/10/12 10:34:32;;;;;;;12.38;1.70;;;;;;;12.82;92.60;102166.88;5093925;28;20024;-78
2021/10/12 10:37:15;;;;;;;8.77;1.85;;;;;;;12.92;91.94;102161.63;5094401;28;20029;-79
2021/10/12 10:39:43;;;;;;;14.93;2.15;;;;;;;13.00;92.72;102153.88;5094215;28;20357;-78
2021/10/12 10:42:29;;;;;;;19.23;2.00;;;;;;;13.04;92.49;102157.13;5075213;28;20024;-76
2021/10/12 10:45:02;;;;;;;14.20;2.15;;;;;;;13.10;92.71;102161.97;5094079;28;20032;-78
2021/10/12 10:47:40;;;;;;;16.13;2.00;;;;;;;13.08;91.72;102147.03;5089162;28;20533;-79
2021/10/12 10:50:26;;;;;;;9.43;1.92;;;;;;;13.15;91.54;102150.91;5091024;28;20092;-77
2021/10/12 10:52:57;;;;;;;6.70;1.90;;;;;;;13.05;90.63;102164.19;5091010;28;20039;-78
2021/10/12 10:55:45;;;;;;;7.53;1.10;;;;;;;12.74;91.62;102168.44;5090453;28;20101;-77
2021/10/12 10:58:16;;;;;;;3.90;1.00;;;;;;;12.54;93.08;102162.84;5072346;28;20044;-76
2021/10/12 11:00:47;;;;;;;7.90;1.10;;;;;;;12.50;95.10;102166.72;5091112;28;20028;-75
2021/10/12 11:03:35;;;;;;;;;;;;;;;12.55;94.27;102167.19;5090694;28;20618;-78
2021/10/12 11:06:26;;;;;;;3.30;1.20;;;;;;;12.68;94.35;102173.28;5090972;28;19919;-76
2021/10/12 11:08:54;;;;;;;;;;;;;;;12.82;94.78;102172.22;5086141;28;20047;-76
2021/10/12 11:11:20;;;;;;;4.60;1.05;;;;;;;12.92;93.95;102172.31;5090348;28;19932;-79
2021/10/12 11:13:45;;;;;;;3.75;0.77;;;;;;;12.97;91.67;102163.94;5091042;28;20028;-77
2021/10/12 11:16:12;;;;;;;4.95;0.93;;;;;;;13.08;90.85;102171.06;5090404;28;20038;-76
2021/10/12 11:18:40;;;;;;;3.38;0.90;;;;;;;13.15;90.92;102169.63;5091145;28;20118;-77